Time;durP1;ratioP1;P1;durP2;ratioP2;P2;SDS_P1;SDS_P2;PMS_P1;PMS_P2;Temp;Humidity;BMP_temperature;BMP_pressure;BME280_temperature;BME280_humidity;BME280_pressure;Samples;Min_cycle;Max_cycle;Signal;HPM_P1;HPM_P2
2022/01/20 00:01:47;;;;;;;15.10;4.25;;;4.10;99.90;;;;;;4212078;28;20064;-78
2022/01/20 00:03:47;;;;;;;21.30;5.15;;;4.00;99.90;;;;;;4233901;28;20506;-83
2022/01/20 00:27:02;;;;;;;14.07;3.97;;;3.40;99.90;;;;;;4198718;28;20116;-78
2022/01/20 00:29:06;;;;;;;19.30;4.55;;;3.30;99.90;;;;;;4220540;28;20079;-79
2022/01/20 00:33:41;;;;;;;19.27;4.22;;;3.20;99.90;;;;;;4226112;28;20047;-80
2022/01/20 00:37:51;;;;;;;16.38;4.30;;;3.10;99.90;;;;;;4217019;28;20072;-78
2022/01/20 00:39:56;;;;;;;13.68;3.17;;;3.00;99.90;;;;;;4221064;28;20056;-79
2022/01/20 00:41:58;;;;;;;16.88;4.03;;;2.90;99.90;;;;;;4197777;28;20072;-80
2022/01/20 00:44:00;;;;;;;13.73;3.40;;;2.90;99.90;;;;;;4229766;28;20640;-79
2022/01/20 00:46:02;;;;;;;19.50;4.28;;;2.90;99.90;;;;;;4193112;28;20401;-78
2022/01/20 00:48:04;;;;;;;13.68;4.00;;;2.80;99.90;;;;;;4191306;28;20056;-78
2022/01/20 00:50:09;;;;;;;14.13;4.43;;;2.70;99.90;;;;;;4212304;28;20051;-78
2022/01/20 00:52:11;;;;;;;18.20;4.50;;;2.70;99.90;;;;;;4187697;28;20048;-81
2022/01/20 00:54:13;;;;;;;14.40;4.68;;;2.60;99.90;;;;;;4195911;28;20103;-78
2022/01/20 00:56:15;;;;;;;21.05;3.75;;;2.60;99.90;;;;;;4226312;27;20138;-78
2022/01/20 00:58:17;;;;;;;23.70;4.28;;;2.60;99.90;;;;;;4224441;28;20062;-78
2022/01/20 01:00:19;;;;;;;19.27;3.50;;;2.50;99.90;;;;;;4193751;28;20097;-79
2022/01/20 01:02:22;;;;;;;17.77;4.07;;;2.40;99.90;;;;;;4202635;28;20112;-79
2022/01/20 01:04:25;;;;;;;13.15;3.88;;;2.40;99.90;;;;;;4197786;28;20079;-78
2022/01/20 01:08:39;;;;;;;16.40;3.38;;;2.40;99.90;;;;;;4219185;28;20071;-79
2022/01/20 01:10:44;;;;;;;21.55;3.00;;;2.40;99.90;;;;;;4227970;27;20046;-80
2022/01/20 01:12:52;;;;;;;17.58;3.35;;;2.40;99.90;;;;;;4203578;28;20082;-79
2022/01/20 01:14:54;;;;;;;10.85;2.92;;;2.40;99.90;;;;;;4197991;28;20163;-78
2022/01/20 01:21:40;;;;;;;21.08;2.60;;;2.10;99.90;;;;;;4196583;28;20158;-78
2022/01/20 01:23:44;;;;;;;19.48;3.17;;;2.10;99.90;;;;;;4192505;28;20037;-79
2022/01/20 01:25:48;;;;;;;21.67;2.97;;;2.10;99.90;;;;;;4187113;28;20748;-78
2022/01/20 01:27:50;;;;;;;20.48;2.88;;;2.10;99.90;;;;;;4212273;28;20478;-79
2022/01/20 01:32:15;;;;;;;14.70;2.85;;;2.00;99.90;;;;;;4196499;28;20048;-79
2022/01/20 01:34:21;;;;;;;14.10;2.42;;;2.00;99.90;;;;;;4187301;28;20077;-79
2022/01/20 01:36:25;;;;;;;;;;;1.90;99.90;;;;;;4192864;28;20190;-79
2022/01/20 01:38:36;;;;;;;16.50;2.85;;;1.90;99.90;;;;;;4195494;28;20427;-79
2022/01/20 01:40:41;;;;;;;16.27;2.70;;;1.80;99.90;;;;;;4221084;28;20500;-78
2022/01/20 01:42:46;;;;;;;15.70;2.50;;;1.70;99.90;;;;;;4198636;28;20044;-81
2022/01/20 01:44:48;;;;;;;15.80;2.67;;;1.70;99.90;;;;;;4186511;28;20041;-79
2022/01/20 01:46:51;;;;;;;19.95;2.40;;;1.60;99.90;;;;;;4195999;28;20080;-76
2022/01/20 01:48:53;;;;;;;11.27;2.35;;;1.60;99.90;;;;;;4197694;28;20048;-78
2022/01/20 01:50:56;;;;;;;16.50;2.70;;;1.50;99.90;;;;;;4198043;28;20495;-78
2022/01/20 01:53:01;;;;;;;11.88;2.72;;;1.50;99.90;;;;;;4181060;28;20244;-78
2022/01/20 01:55:04;;;;;;;20.45;3.38;;;1.50;99.90;;;;;;4181121;28;20053;-78
2022/01/20 01:57:09;;;;;;;13.70;2.55;;;1.50;99.90;;;;;;4208068;28;20127;-78
2022/01/20 01:59:11;;;;;;;18.42;2.83;;;1.50;99.90;;;;;;4217181;28;20047;-78
2022/01/20 02:01:13;;;;;;;21.65;3.22;;;1.40;99.90;;;;;;4198659;28;20079;-77
2022/01/20 02:03:15;;;;;;;23.73;2.90;;;1.50;99.90;;;;;;4198015;28;20131;-78
2022/01/20 02:05:19;;;;;;;23.15;2.55;;;1.40;99.90;;;;;;4228654;28;20082;-78
2022/01/20 02:17:51;;;;;;;18.00;2.90;;;1.30;99.90;;;;;;4200216;28;20079;-78
2022/01/20 02:19:13;;;;;;;11.82;2.55;;;1.20;99.90;;;;;;4198538;28;20080;-77
2022/01/20 02:21:15;;;;;;;16.25;2.97;;;1.10;99.90;;;;;;4194187;28;20040;-78
2022/01/20 02:23:17;;;;;;;9.10;2.72;;;1.20;99.90;;;;;;4195857;28;20558;-78
2022/01/20 02:25:23;;;;;;;10.60;2.85;;;1.20;99.90;;;;;;4198048;28;20044;-78
2022/01/20 02:27:24;;;;;;;17.30;3.25;;;1.10;99.90;;;;;;4195610;28;20089;-78
2022/01/20 02:29:26;;;;;;;16.83;3.47;;;1.10;99.90;;;;;;4198538;28;20083;-78
2022/01/20 02:31:28;;;;;;;24.50;3.70;;;1.10;99.90;;;;;;4215921;28;20047;-78
2022/01/20 02:33:31;;;;;;;19.17;3.55;;;1.20;99.90;;;;;;4215080;28;20112;-78
2022/01/20 02:35:45;;;;;;;19.67;3.38;;;1.20;99.90;;;;;;4197743;28;20072;-79
2022/01/20 02:37:52;;;;;;;19.65;3.20;;;1.20;99.90;;;;;;4216284;28;20055;-80
2022/01/20 02:46:48;;;;;;;27.63;4.03;;;1.90;99.90;;;;;;4215798;28;20086;-79
2022/01/20 02:48:50;;;;;;;20.55;4.28;;;2.10;99.90;;;;;;4200727;28;20484;-79
2022/01/20 02:50:52;;;;;;;33.60;4.03;;;2.20;99.90;;;;;;4216366;28;20048;-80
2022/01/20 02:52:54;;;;;;;27.67;4.00;;;2.20;99.90;;;;;;4196471;28;20045;-80
2022/01/20 02:54:57;;;;;;;25.85;3.90;;;2.30;99.90;;;;;;4196577;28;20080;-81
2022/01/20 02:56:58;;;;;;;25.60;3.92;;;2.30;99.90;;;;;;4196863;28;20512;-81
2022/01/20 02:59:00;;;;;;;33.88;4.13;;;2.20;99.90;;;;;;4194996;28;20083;-81
2022/01/20 03:01:03;;;;;;;14.98;3.58;;;2.00;99.90;;;;;;4196453;28;20061;-83
2022/01/20 03:03:05;;;;;;;29.10;3.75;;;1.90;99.90;;;;;;4196601;28;20094;-83
2022/01/20 03:05:07;;;;;;;23.45;3.50;;;1.80;99.90;;;;;;4230188;28;20047;-79
2022/01/20 03:07:09;;;;;;;28.30;3.70;;;1.60;99.90;;;;;;4226622;28;20036;-80
2022/01/20 03:09:11;;;;;;;25.88;4.00;;;1.60;99.90;;;;;;4217311;28;20553;-79
2022/01/20 03:11:13;;;;;;;20.23;3.58;;;1.50;99.90;;;;;;4196728;28;20079;-81
2022/01/20 03:13:15;;;;;;;28.83;3.25;;;1.40;99.90;;;;;;4214387;28;20135;-81
2022/01/20 03:15:17;;;;;;;13.15;3.60;;;1.30;99.90;;;;;;4228434;28;20043;-81
2022/01/20 03:17:19;;;;;;;21.55;3.83;;;1.30;99.90;;;;;;4196066;28;20080;-80
2022/01/20 03:19:20;;;;;;;20.90;3.67;;;1.20;99.90;;;;;;4213563;28;20068;-81
2022/01/20 03:21:22;;;;;;;14.90;3.08;;;1.20;99.90;;;;;;4213772;28;20075;-79
2022/01/20 03:23:24;;;;;;;24.55;4.25;;;1.20;99.90;;;;;;4213604;28;20048;-80
2022/01/20 03:25:28;;;;;;;27.17;3.65;;;1.20;99.90;;;;;;4195084;28;20131;-80
2022/01/20 03:27:30;;;;;;;28.98;4.70;;;1.20;99.90;;;;;;4229867;28;20097;-81
2022/01/20 03:29:32;;;;;;;22.95;3.15;;;1.20;99.90;;;;;;4230553;28;20554;-80
2022/01/20 03:31:34;;;;;;;12.57;3.08;;;1.20;99.90;;;;;;4230253;28;20051;-79
2022/01/20 03:33:36;;;;;;;20.77;3.25;;;1.10;99.90;;;;;;4195580;28;20048;-79
2022/01/20 03:35:41;;;;;;;15.88;3.67;;;1.10;99.90;;;;;;4224723;28;20048;-81
2022/01/20 03:37:43;;;;;;;15.77;2.97;;;1.00;99.90;;;;;;4197182;28;20060;-78
2022/01/20 03:39:45;;;;;;;16.33;3.25;;;1.00;99.90;;;;;;4230563;28;20059;-82
2022/01/20 03:41:48;;;;;;;20.55;3.50;;;1.00;99.90;;;;;;4195275;28;21141;-81
2022/01/20 03:43:49;;;;;;;16.45;3.30;;;0.90;99.90;;;;;;4222513;28;20047;-79
2022/01/20 03:45:56;;;;;;;15.43;3.50;;;0.90;99.90;;;;;;4196874;28;20131;-80
2022/01/20 03:48:07;;;;;;;19.20;3.33;;;0.90;99.90;;;;;;4193292;28;20072;-79
2022/01/20 03:50:59;;;;;;;29.50;4.32;;;0.90;99.90;;;;;;4190216;28;20115;-79
2022/01/20 03:52:31;;;;;;;26.75;4.18;;;1.00;99.90;;;;;;4210211;28;20051;-81
2022/01/20 03:54:34;;;;;;;22.50;3.08;;;1.00;99.90;;;;;;4233351;28;20051;-80
2022/01/20 03:56:37;;;;;;;29.70;3.55;;;1.10;99.90;;;;;;4231282;28;20099;-78
2022/01/20 03:58:39;;;;;;;21.67;4.55;;;1.20;99.90;;;;;;4224228;28;20073;-79
2022/01/20 04:00:41;;;;;;;27.00;3.20;;;1.30;99.90;;;;;;4199196;28;20041;-79
2022/01/20 04:02:43;;;;;;;29.33;3.67;;;1.30;99.90;;;;;;4200086;28;20063;-79
2022/01/20 04:04:45;;;;;;;30.70;3.78;;;1.40;99.90;;;;;;4233959;28;20051;-79
2022/01/20 04:06:47;;;;;;;30.63;4.70;;;1.30;99.90;;;;;;4231466;28;20056;-79
2022/01/20 04:08:50;;;;;;;16.90;3.65;;;1.30;99.90;;;;;;4225102;28;20055;-81
2022/01/20 04:10:52;;;;;;;27.55;4.47;;;1.20;99.90;;;;;;4201298;28;20052;-80
2022/01/20 04:12:54;;;;;;;18.35;4.03;;;1.20;99.90;;;;;;4200427;28;20452;-79
2022/01/20 04:14:56;;;;;;;20.92;3.58;;;1.30;99.90;;;;;;4193749;28;20098;-79
2022/01/20 04:17:04;;;;;;;24.95;3.22;;;1.30;99.90;;;;;;4200377;28;20052;-79
2022/01/20 04:19:08;;;;;;;25.60;3.25;;;1.40;99.90;;;;;;4233330;28;20043;-80
2022/01/20 04:21:10;;;;;;;26.15;3.35;;;1.40;99.90;;;;;;4198873;28;20064;-80
2022/01/20 04:23:12;;;;;;;60.45;5.88;;;1.30;99.90;;;;;;4199226;28;20500;-80
2022/01/20 04:25:14;;;;;;;20.83;3.05;;;1.30;99.90;;;;;;4183133;28;20455;-80
2022/01/20 04:27:16;;;;;;;23.73;3.20;;;1.30;99.90;;;;;;4216341;28;20067;-80
2022/01/20 04:29:18;;;;;;;25.00;4.20;;;1.30;99.90;;;;;;4184433;28;20049;-80
2022/01/20 04:31:21;;;;;;;26.92;3.58;;;1.20;99.90;;;;;;4225401;28;20048;-81
2022/01/20 04:33:23;;;;;;;20.48;3.65;;;1.20;99.90;;;;;;4199448;28;20056;-81
2022/01/20 04:35:25;;;;;;;25.80;4.18;;;1.20;99.90;;;;;;4200108;28;20055;-80
2022/01/20 04:37:27;;;;;;;19.33;3.47;;;1.20;99.90;;;;;;4198766;28;20052;-80
2022/01/20 04:39:32;;;;;;;24.33;2.92;;;1.20;99.90;;;;;;4183150;28;20049;-81
2022/01/20 04:41:34;;;;;;;17.27;3.08;;;1.10;99.90;;;;;;4184217;28;20504;-81
2022/01/20 04:43:36;;;;;;;18.92;3.03;;;1.10;99.90;;;;;;4217142;28;20118;-81
2022/01/20 04:45:48;;;;;;;19.80;3.30;;;1.10;99.90;;;;;;4216272;28;20052;-80
2022/01/20 04:48:41;;;;;;;26.83;3.47;;;1.20;99.90;;;;;;4231566;28;20544;-80
2022/01/20 04:57:23;;;;;;;13.75;3.20;;;1.40;99.90;;;;;;4216233;28;20083;-83
2022/01/20 04:59:25;;;;;;;21.75;3.60;;;1.50;99.90;;;;;;4234200;28;20075;-81
2022/01/20 05:01:27;;;;;;;17.17;3.75;;;1.50;99.90;;;;;;4201177;28;20111;-81
2022/01/20 05:03:29;;;;;;;17.48;3.13;;;1.50;99.90;;;;;;4201335;28;20106;-83
2022/01/20 05:05:32;;;;;;;18.75;4.05;;;1.50;99.90;;;;;;4199899;28;20053;-81
2022/01/20 05:07:35;;;;;;;9.20;3.10;;;1.60;99.90;;;;;;4234852;28;20044;-84
2022/01/20 05:09:37;;;;;;;24.23;3.70;;;1.60;99.90;;;;;;4201202;28;20044;-84
2022/01/20 05:11:43;;;;;;;27.05;4.43;;;1.70;99.90;;;;;;4199424;28;20122;-83
2022/01/20 05:13:45;;;;;;;16.65;3.40;;;1.70;99.90;;;;;;4205417;28;20045;-84
2022/01/20 05:15:47;;;;;;;24.25;3.80;;;1.80;99.90;;;;;;4237298;28;20048;-88
2022/01/20 05:17:50;;;;;;;25.38;4.20;;;1.80;99.90;;;;;;4240093;28;20499;-91
2022/01/20 05:19:52;;;;;;;15.23;4.03;;;1.80;99.90;;;;;;4198669;28;20491;-80
2022/01/20 05:21:54;;;;;;;17.75;4.65;;;1.90;99.90;;;;;;4212086;28;20060;-80
2022/01/20 05:23:56;;;;;;;30.55;4.70;;;1.90;99.90;;;;;;4232404;28;20082;-80
2022/01/20 05:25:58;;;;;;;22.58;3.80;;;1.90;99.90;;;;;;4198801;28;20040;-80
2022/01/20 05:28:00;;;;;;;18.63;4.28;;;1.90;99.90;;;;;;4197325;28;20045;-79
2022/01/20 05:30:03;;;;;;;18.83;3.65;;;2.00;99.90;;;;;;4198808;28;20040;-79
2022/01/20 05:32:05;;;;;;;25.08;4.72;;;2.00;99.90;;;;;;4199204;28;20110;-79
2022/01/20 05:34:07;;;;;;;23.42;6.18;;;2.00;99.90;;;;;;4198279;28;20052;-80
2022/01/20 05:36:09;;;;;;;11.90;3.35;;;2.10;99.90;;;;;;4199296;28;20098;-80
2022/01/20 05:38:12;;;;;;;26.00;4.68;;;2.10;99.90;;;;;;4220184;28;20503;-80
2022/01/20 05:40:14;;;;;;;16.25;3.50;;;2.10;99.90;;;;;;4184433;28;20048;-80
2022/01/20 05:42:16;;;;;;;21.42;4.40;;;2.20;99.90;;;;;;4191479;28;20052;-88
2022/01/20 05:44:18;;;;;;;17.65;3.60;;;2.20;99.90;;;;;;4220069;28;20056;-80
2022/01/20 05:46:24;;;;;;;22.45;3.53;;;2.20;99.90;;;;;;4182091;28;20053;-79
2022/01/20 05:48:34;;;;;;;21.65;3.58;;;2.30;99.90;;;;;;4198105;28;20044;-79
2022/01/20 05:50:37;;;;;;;16.08;4.30;;;2.40;99.90;;;;;;4189440;28;20049;-79
2022/01/20 05:52:41;;;;;;;26.88;6.47;;;2.40;99.90;;;;;;4220318;28;20048;-80
2022/01/20 05:54:43;;;;;;;23.58;5.55;;;2.40;99.90;;;;;;4214938;28;20141;-79
2022/01/20 05:56:45;;;;;;;28.25;6.53;;;2.40;99.90;;;;;;4181601;28;20640;-80
2022/01/20 05:58:47;;;;;;;22.40;5.82;;;2.40;99.90;;;;;;4214865;28;20052;-79
2022/01/20 06:00:50;;;;;;;18.90;6.15;;;2.40;99.90;;;;;;4225012;28;20054;-79
2022/01/20 06:05:14;;;;;;;20.35;5.95;;;2.40;99.90;;;;;;4198798;28;20079;-79
2022/01/20 06:07:16;;;;;;;20.90;5.22;;;2.40;99.90;;;;;;4197829;28;20068;-79
2022/01/20 06:09:18;;;;;;;20.98;4.72;;;2.50;99.90;;;;;;4196439;28;20092;-79
2022/01/20 06:11:20;;;;;;;21.33;5.28;;;2.50;99.90;;;;;;4214289;28;20072;-82
2022/01/20 06:13:22;;;;;;;21.58;5.30;;;2.50;99.90;;;;;;4196869;28;20048;-80
2022/01/20 06:15:24;;;;;;;18.55;4.78;;;2.50;99.90;;;;;;4225779;28;20044;-79
2022/01/20 06:17:28;;;;;;;16.35;4.53;;;2.50;99.90;;;;;;4231008;28;20450;-80
2022/01/20 06:19:30;;;;;;;13.10;4.13;;;2.60;99.90;;;;;;4197724;28;20063;-80
2022/01/20 06:21:32;;;;;;;15.45;4.18;;;2.60;99.90;;;;;;4192258;28;20052;-80
2022/01/20 06:23:34;;;;;;;22.77;4.50;;;2.60;99.90;;;;;;4201879;28;20048;-80
2022/01/20 06:25:36;;;;;;;12.93;3.97;;;2.60;99.90;;;;;;4180844;28;20072;-79
2022/01/20 06:27:38;;;;;;;16.17;3.75;;;2.70;99.90;;;;;;4180417;28;20075;-79
2022/01/20 06:29:40;;;;;;;28.35;4.63;;;2.70;99.90;;;;;;4214467;28;20056;-78
2022/01/20 06:31:42;;;;;;;13.73;3.78;;;2.70;99.90;;;;;;4197172;28;20435;-78
2022/01/20 06:33:44;;;;;;;14.23;3.78;;;2.70;99.90;;;;;;4207881;28;20052;-79
2022/01/20 06:35:46;;;;;;;11.75;3.55;;;2.70;99.90;;;;;;4214094;28;20052;-78
2022/01/20 06:37:48;;;;;;;17.17;4.72;;;2.70;99.90;;;;;;4182624;28;20057;-80
2022/01/20 06:39:50;;;;;;;20.73;3.53;;;2.70;99.90;;;;;;4189635;28;20053;-79
2022/01/20 06:41:52;;;;;;;19.77;3.47;;;2.70;99.90;;;;;;4197138;28;20044;-79
2022/01/20 06:43:54;;;;;;;18.45;3.75;;;2.80;99.90;;;;;;4180608;28;20048;-78
2022/01/20 06:45:56;;;;;;;15.45;3.80;;;2.80;99.90;;;;;;4198617;28;20067;-78
2022/01/20 06:47:58;;;;;;;26.67;5.03;;;2.80;99.90;;;;;;4226046;28;20187;-78
2022/01/20 06:50:01;;;;;;;15.43;3.95;;;2.80;99.90;;;;;;4196938;28;20628;-78
2022/01/20 06:52:03;;;;;;;20.55;4.40;;;2.80;99.90;;;;;;4229624;28;20052;-79
2022/01/20 06:54:05;;;;;;;20.35;5.18;;;2.80;99.90;;;;;;4204917;28;20531;-79
2022/01/20 06:56:07;;;;;;;20.17;5.13;;;2.80;99.90;;;;;;4203271;28;20052;-77
2022/01/20 06:58:29;;;;;;;23.20;4.32;;;2.80;99.90;;;;;;4228289;28;20047;-78
2022/01/20 07:00:31;;;;;;;18.63;4.47;;;2.80;99.90;;;;;;4206855;28;20048;-81
2022/01/20 07:02:33;;;;;;;15.70;4.13;;;2.80;99.90;;;;;;4200679;28;20110;-81
2022/01/20 07:04:37;;;;;;;19.60;3.67;;;2.80;99.90;;;;;;4203299;28;20102;-80
2022/01/20 07:06:39;;;;;;;16.80;3.70;;;2.80;99.90;;;;;;4233047;28;20122;-81
2022/01/20 07:08:41;;;;;;;21.67;4.10;;;2.80;99.90;;;;;;4195566;28;20072;-80
2022/01/20 07:10:43;;;;;;;30.42;4.82;;;2.80;99.90;;;;;;4203159;28;20036;-81
2022/01/20 07:12:46;;;;;;;19.13;3.70;;;2.80;99.90;;;;;;4199552;28;20060;-82
2022/01/20 07:14:48;;;;;;;22.08;4.22;;;2.80;99.90;;;;;;4212033;28;20510;-79
2022/01/20 07:16:50;;;;;;;18.08;3.90;;;2.80;99.90;;;;;;4205126;28;20049;-80
2022/01/20 07:18:52;;;;;;;17.38;3.65;;;2.70;99.90;;;;;;4231205;28;20055;-81
2022/01/20 07:20:54;;;;;;;21.92;4.78;;;2.70;99.90;;;;;;4237445;28;20047;-80
2022/01/20 07:22:56;;;;;;;21.67;5.00;;;2.70;99.90;;;;;;4203699;28;20044;-81
2022/01/20 07:24:57;;;;;;;26.95;4.85;;;2.70;99.90;;;;;;4205179;28;20048;-79
2022/01/20 07:26:59;;;;;;;17.05;4.45;;;2.70;99.90;;;;;;4236970;27;20039;-80
2022/01/20 07:29:02;;;;;;;25.25;4.32;;;2.70;99.90;;;;;;4226106;27;20527;-82
2022/01/20 07:31:06;;;;;;;21.02;4.22;;;2.70;99.90;;;;;;4200299;28;20069;-80
2022/01/20 07:33:08;;;;;;;19.42;3.88;;;2.70;99.90;;;;;;4222441;28;20094;-79
2022/01/20 07:35:10;;;;;;;26.38;3.65;;;2.80;99.90;;;;;;4228093;28;20056;-81
2022/01/20 07:37:12;;;;;;;22.33;4.43;;;2.80;99.90;;;;;;4200560;28;20068;-82
2022/01/20 07:39:13;;;;;;;18.27;3.47;;;2.90;99.90;;;;;;4200354;28;20083;-83
2022/01/20 07:41:16;;;;;;;22.40;4.30;;;2.90;99.90;;;;;;4198695;28;20057;-82
2022/01/20 07:43:18;;;;;;;15.30;4.18;;;2.90;99.90;;;;;;4200158;28;20052;-83
2022/01/20 07:45:21;;;;;;;26.05;4.55;;;3.00;99.90;;;;;;4217143;28;20511;-80
2022/01/20 07:47:23;;;;;;;21.73;3.60;;;3.00;99.90;;;;;;4216782;28;20083;-83
2022/01/20 07:49:27;;;;;;;22.13;5.15;;;3.10;99.90;;;;;;4188823;28;20556;-85
2022/01/20 07:51:28;;;;;;;25.33;4.63;;;3.20;99.90;;;;;;4227328;28;20082;-80
2022/01/20 07:53:30;;;;;;;18.25;4.80;;;3.30;99.90;;;;;;4228653;28;20131;-79
2022/01/20 07:55:32;;;;;;;28.65;5.00;;;3.40;99.90;;;;;;4198979;28;20074;-80
2022/01/20 07:57:34;;;;;;;25.60;4.57;;;3.50;99.90;;;;;;4198199;28;20068;-80
2022/01/20 07:59:36;;;;;;;26.05;4.35;;;3.60;99.90;;;;;;4182501;28;20056;-77
2022/01/20 08:01:38;;;;;;;21.77;4.00;;;3.70;99.90;;;;;;4215566;28;20044;-81
2022/01/20 08:03:40;;;;;;;29.27;3.83;;;3.80;99.90;;;;;;4195739;28;20043;-80
2022/01/20 08:05:42;;;;;;;25.67;3.47;;;3.80;99.90;;;;;;4215737;28;20052;-79
2022/01/20 08:07:44;;;;;;;25.98;3.75;;;3.90;99.90;;;;;;4207246;28;20075;-79
2022/01/20 08:09:53;;;;;;;22.35;3.30;;;4.00;99.90;;;;;;4234752;27;20071;-79
2022/01/20 08:11:56;;;;;;;21.27;3.03;;;4.10;99.90;;;;;;4208522;28;20074;-79
2022/01/20 08:13:58;;;;;;;18.67;3.72;;;4.10;99.90;;;;;;4202139;28;20076;-79
2022/01/20 08:16:00;;;;;;;27.08;4.07;;;4.10;99.90;;;;;;4207761;28;20496;-80
2022/01/20 08:18:03;;;;;;;22.65;3.22;;;4.20;99.90;;;;;;4205136;28;20071;-79
2022/01/20 08:20:07;;;;;;;20.02;3.55;;;4.30;99.90;;;;;;4199927;28;20083;-79
2022/01/20 08:22:09;;;;;;;28.98;4.07;;;4.40;99.90;;;;;;4212279;28;20049;-79
2022/01/20 08:24:30;;;;;;;18.55;2.92;;;4.40;99.90;;;;;;4234913;27;20073;-80
2022/01/20 08:26:32;;;;;;;22.50;3.65;;;4.40;99.90;;;;;;4240117;27;20067;-79
2022/01/20 08:28:34;;;;;;;23.30;3.30;;;4.40;99.90;;;;;;4202300;28;20052;-79
2022/01/20 08:30:36;;;;;;;29.55;3.55;;;4.40;99.90;;;;;;4200511;28;20151;-79
2022/01/20 08:32:40;;;;;;;22.75;3.60;;;4.30;99.90;;;;;;4221693;28;20040;-79
2022/01/20 08:34:42;;;;;;;30.25;3.65;;;4.20;99.90;;;;;;4202015;28;20048;-79
2022/01/20 08:36:44;;;;;;;20.80;3.55;;;4.10;99.90;;;;;;4240567;27;20046;-79
2022/01/20 08:38:46;;;;;;;26.42;4.80;;;4.20;99.90;;;;;;4198866;28;20079;-79
2022/01/20 08:40:48;;;;;;;35.38;9.02;;;4.20;99.90;;;;;;4204913;28;20055;-79
2022/01/20 08:42:51;;;;;;;17.58;4.00;;;4.10;99.90;;;;;;4210179;28;20130;-80
2022/01/20 08:44:55;;;;;;;21.77;3.90;;;4.00;99.90;;;;;;4202040;28;20079;-78
2022/01/20 08:46:58;;;;;;;30.92;4.38;;;4.00;99.90;;;;;;4208052;28;20044;-82
2022/01/20 08:49:00;;;;;;;22.83;3.72;;;4.10;99.90;;;;;;4201487;28;20041;-79
2022/01/20 08:51:03;;;;;;;28.77;5.30;;;4.00;99.90;;;;;;4202962;28;20047;-79
2022/01/20 08:53:06;;;;;;;15.57;3.35;;;4.10;99.90;;;;;;4200286;28;20041;-79
2022/01/20 08:55:08;;;;;;;24.70;4.68;;;4.00;99.90;;;;;;4201723;28;20076;-78
2022/01/20 08:57:10;;;;;;;21.13;4.15;;;4.00;99.90;;;;;;4186597;28;20048;-79
2022/01/20 08:59:12;;;;;;;28.50;6.28;;;4.00;99.90;;;;;;4218679;28;20500;-79
2022/01/20 09:01:14;;;;;;;37.08;8.55;;;4.00;99.90;;;;;;4199974;28;20049;-80
2022/01/20 09:03:16;;;;;;;29.73;7.57;;;3.90;99.90;;;;;;4233924;27;20059;-79
2022/01/20 09:05:18;;;;;;;28.55;6.35;;;3.80;99.90;;;;;;4202469;28;20047;-79
2022/01/20 09:07:20;;;;;;;31.13;5.30;;;3.80;99.90;;;;;;4202312;28;20123;-79
2022/01/20 09:09:22;;;;;;;17.88;3.70;;;3.80;99.90;;;;;;4213892;28;20098;-79
2022/01/20 09:11:30;;;;;;;24.17;5.20;;;3.80;99.90;;;;;;4208073;28;20068;-81
2022/01/20 09:15:55;;;;;;;19.02;5.65;;;3.80;99.90;;;;;;4207516;28;20056;-79
2022/01/20 09:17:59;;;;;;;34.83;7.72;;;3.80;99.90;;;;;;4199325;28;20049;-81
2022/01/20 09:20:02;;;;;;;23.77;7.55;;;3.70;99.90;;;;;;4195979;28;20087;-79
2022/01/20 09:22:05;;;;;;;26.00;6.35;;;3.70;99.90;;;;;;4197503;28;20072;-79
2022/01/20 09:24:07;;;;;;;27.05;6.63;;;3.60;99.90;;;;;;4214124;28;20078;-77
2022/01/20 09:26:09;;;;;;;29.52;6.85;;;3.60;99.90;;;;;;4180528;28;20045;-80
2022/01/20 09:28:11;;;;;;;40.63;12.35;;;3.70;99.90;;;;;;4186882;28;20045;-79
2022/01/20 09:30:18;;;;;;;32.10;9.18;;;3.80;99.90;;;;;;4221550;28;20079;-79
2022/01/20 09:32:21;;;;;;;28.00;7.47;;;3.90;99.90;;;;;;4227707;28;20048;-79
2022/01/20 09:34:24;;;;;;;29.08;8.27;;;4.00;99.90;;;;;;4216987;28;20404;-78
2022/01/20 09:36:26;;;;;;;25.50;6.78;;;3.90;99.90;;;;;;4213666;28;20141;-80
2022/01/20 09:38:28;;;;;;;30.02;8.68;;;4.00;99.90;;;;;;4214037;28;20713;-79
2022/01/20 09:40:32;;;;;;;40.83;11.75;;;4.10;99.90;;;;;;4213756;28;20070;-78
2022/01/20 09:42:34;;;;;;;33.30;7.43;;;4.20;99.90;;;;;;4197072;28;20080;-79
2022/01/20 09:44:44;;;;;;;31.73;4.72;;;4.20;99.90;;;;;;4197342;28;20091;-79
2022/01/20 09:46:48;;;;;;;67.47;19.67;;;4.40;99.90;;;;;;4215348;28;20040;-79
2022/01/20 09:48:50;;;;;;;31.38;7.38;;;4.30;99.90;;;;;;4215280;28;20079;-78
2022/01/20 09:50:52;;;;;;;35.75;5.90;;;4.40;99.90;;;;;;4202314;28;20075;-78
2022/01/20 09:53:01;;;;;;;31.02;6.93;;;4.60;99.90;;;;;;4196887;28;20480;-79
2022/01/20 09:55:03;;;;;;;38.03;5.38;;;4.80;99.90;;;;;;4195854;28;20041;-79
2022/01/20 09:57:05;;;;;;;26.80;4.47;;;5.00;99.90;;;;;;4221264;28;20048;-79
2022/01/20 09:59:07;;;;;;;63.10;16.83;;;5.10;99.90;;;;;;4197019;28;20496;-78
2022/01/20 10:01:10;;;;;;;29.23;4.10;;;5.10;99.90;;;;;;4196304;28;20059;-78
2022/01/20 10:03:16;;;;;;;23.60;3.90;;;5.30;99.90;;;;;;4216418;28;20056;-79
2022/01/20 10:05:31;;;;;;;29.45;4.22;;;5.40;99.90;;;;;;4197297;28;20571;-78
2022/01/20 10:07:35;;;;;;;27.50;3.20;;;5.50;99.90;;;;;;4218646;28;20044;-78
2022/01/20 10:09:39;;;;;;;25.00;4.03;;;5.60;99.90;;;;;;4213055;28;20123;-79
2022/01/20 10:11:41;;;;;;;24.00;5.07;;;5.80;99.90;;;;;;4213384;28;20074;-78
2022/01/20 10:13:43;;;;;;;20.75;4.97;;;5.90;99.90;;;;;;4213485;28;20095;-78
2022/01/20 10:16:04;;;;;;;20.02;4.65;;;5.90;99.90;;;;;;4213063;28;20052;-78
2022/01/20 10:18:14;;;;;;;24.20;3.95;;;6.00;99.90;;;;;;4220258;28;20080;-76
2022/01/20 10:20:16;;;;;;;26.70;3.97;;;6.10;99.90;;;;;;4230312;28;20048;-78
2022/01/20 10:22:23;;;;;;;18.38;3.20;;;6.10;99.90;;;;;;4233107;27;20120;-77
2022/01/20 10:24:27;;;;;;;22.30;3.55;;;6.30;99.90;;;;;;4204644;28;20086;-78
2022/01/20 10:26:29;;;;;;;15.88;3.03;;;6.40;99.90;;;;;;4234098;27;20827;-77
2022/01/20 10:29:00;;;;;;;17.80;3.05;;;6.40;99.90;;;;;;4203036;28;20090;-78
2022/01/20 10:31:02;;;;;;;20.05;2.83;;;6.50;99.90;;;;;;4228151;27;20043;-78
2022/01/20 10:33:04;;;;;;;20.73;3.25;;;6.50;99.90;;;;;;4231354;27;20063;-78
2022/01/20 10:35:07;;;;;;;17.08;3.05;;;6.60;99.90;;;;;;4209135;28;20510;-78
2022/01/20 10:37:16;;;;;;;15.55;3.47;;;6.60;99.90;;;;;;4198278;28;20082;-78
2022/01/20 10:39:27;;;;;;;22.75;2.88;;;6.60;99.90;;;;;;4200602;28;20048;-79
2022/01/20 10:41:30;;;;;;;16.23;2.72;;;6.60;99.90;;;;;;4212643;28;20511;-78
2022/01/20 10:43:34;;;;;;;20.98;3.33;;;6.60;99.90;;;;;;4217068;28;20055;-77
2022/01/20 10:45:36;;;;;;;20.10;3.33;;;6.60;99.90;;;;;;4231081;27;20051;-78
2022/01/20 10:47:39;;;;;;;14.13;3.03;;;6.70;99.90;;;;;;4211348;28;20048;-78
2022/01/20 10:49:42;;;;;;;17.48;2.92;;;6.80;99.90;;;;;;4208484;28;20051;-77
2022/01/20 10:52:04;;;;;;;14.60;3.03;;;6.90;99.90;;;;;;4184179;28;20045;-78
2022/01/20 10:54:15;;;;;;;16.88;3.28;;;7.00;99.90;;;;;;4212772;28;20543;-78
2022/01/20 10:56:18;;;;;;;27.35;4.30;;;7.10;99.90;;;;;;4220159;28;20058;-78
2022/01/20 10:58:23;;;;;;;17.20;2.80;;;7.10;99.90;;;;;;4228610;28;20062;-78
2022/01/20 11:00:26;;;;;;;;;;;7.20;99.90;;;;;;4229801;28;20055;-77
2022/01/20 11:02:29;;;;;;;15.20;2.80;;;7.20;99.90;;;;;;4196825;28;19931;-78
2022/01/20 11:04:32;;;;;;;14.75;3.20;;;7.30;99.90;;;;;;4229053;28;20112;-76
2022/01/20 11:06:36;;;;;;;16.23;2.92;;;7.40;99.90;;;;;;4213436;28;20056;-78
2022/01/20 11:08:41;;;;;;;;;;;7.50;99.90;;;;;;4171776;28;20616;-77
2022/01/20 11:10:44;;;;;;;22.70;3.15;;;7.60;99.90;;;;;;4196093;28;20407;-77
2022/01/20 11:12:46;;;;;;;12.55;2.67;;;7.60;99.90;;;;;;4209755;28;20080;-78
2022/01/20 11:14:51;;;;;;;19.33;3.10;;;7.60;99.90;;;;;;4178721;28;20057;-76
2022/01/20 11:16:53;;;;;;;15.07;2.75;;;7.60;99.90;;;;;;4175968;28;20037;-76
2022/01/20 11:18:55;;;;;;;18.60;3.15;;;7.60;99.90;;;;;;4188608;28;20079;-77
2022/01/20 11:20:59;;;;;;;18.45;3.45;;;7.60;99.90;;;;;;4181975;28;20103;-77
2022/01/20 11:23:07;;;;;;;17.35;2.70;;;7.50;99.90;;;;;;4162964;28;20045;-78
2022/01/20 11:25:10;;;;;;;16.38;3.10;;;7.60;99.90;;;;;;4162960;28;20050;-78
2022/01/20 11:27:13;;;;;;;13.05;2.20;;;7.60;99.90;;;;;;4166312;28;20099;-78
2022/01/20 11:29:16;;;;;;;15.82;2.60;;;7.70;99.90;;;;;;4162969;28;20045;-78
2022/01/20 11:31:29;;;;;;;22.42;3.17;;;7.70;99.90;;;;;;4171728;28;20591;-79
2022/01/20 11:33:43;;;;;;;18.33;2.97;;;7.80;99.90;;;;;;4179503;28;20044;-78
2022/01/20 11:35:44;;;;;;;16.95;3.33;;;7.80;99.90;;;;;;4183766;28;20076;-80
2022/01/20 11:37:57;;;;;;;21.45;2.63;;;7.80;99.90;;;;;;4181458;28;20041;-79
2022/01/20 11:40:14;;;;;;;19.15;2.45;;;7.90;99.90;;;;;;4176318;28;20107;-79
2022/01/20 11:44:36;;;;;;;18.98;2.55;;;8.00;99.90;;;;;;4569532;22;20582;-81
2022/01/20 11:46:43;;;;;;;14.98;2.95;;;8.10;99.90;;;;;;4171223;28;20053;-81
2022/01/20 11:49:06;;;;;;;15.85;2.72;;;8.20;99.90;;;;;;4169450;28;20048;-81
2022/01/20 11:51:09;;;;;;;17.95;3.10;;;8.20;99.90;;;;;;4172455;28;20067;-82